Time;durP1;ratioP1;P1;durP2;ratioP2;P2;SDS_P1;SDS_P2;PMS_P1;PMS_P2;Temp;Humidity;BMP_temperature;BMP_pressure;BME280_temperature;BME280_humidity;BME280_pressure;Samples;Min_cycle;Max_cycle;Signal;HPM_P1;HPM_P2
2023/03/24 00:00:00;;;;;;;11.95;4.95;;;12.50;99.90;;;;;;4995754;28;20257;-84
2023/03/24 00:02:27;;;;;;;9.57;4.93;;;12.50;99.90;;;;;;4995753;28;20217;-84
2023/03/24 00:04:57;;;;;;;13.15;4.75;;;12.50;99.90;;;;;;4996862;28;20631;-84
2023/03/24 00:07:23;;;;;;;8.75;4.13;;;12.50;99.90;;;;;;4995671;28;20211;-84
2023/03/24 00:09:49;;;;;;;15.45;5.53;;;12.50;99.90;;;;;;4995547;28;20185;-84
2023/03/24 00:12:18;;;;;;;14.52;5.07;;;12.50;99.90;;;;;;4996593;28;20577;-84
2023/03/24 00:14:47;;;;;;;7.95;4.57;;;12.50;99.90;;;;;;4996727;28;20182;-84
2023/03/24 00:17:13;;;;;;;9.30;4.78;;;12.50;99.90;;;;;;4995459;28;20189;-84
2023/03/24 00:19:39;;;;;;;12.13;4.85;;;12.50;99.90;;;;;;4995691;28;20192;-84
2023/03/24 00:22:13;;;;;;;12.18;5.20;;;12.40;99.90;;;;;;4995046;28;20265;-84
2023/03/24 00:24:39;;;;;;;11.18;5.20;;;12.40;99.90;;;;;;4995600;28;20184;-84
2023/03/24 00:27:06;;;;;;;10.55;4.65;;;12.40;99.90;;;;;;4995380;28;20181;-84
2023/03/24 00:29:32;;;;;;;8.40;4.32;;;12.40;99.90;;;;;;4995183;28;20217;-84
2023/03/24 00:31:58;;;;;;;13.75;4.53;;;12.40;99.90;;;;;;4996834;28;20178;-83
2023/03/24 00:34:24;;;;;;;8.38;4.40;;;12.40;99.90;;;;;;4996814;28;20174;-83
2023/03/24 00:36:51;;;;;;;11.00;5.38;;;12.40;99.90;;;;;;4978926;28;20265;-84
2023/03/24 00:39:18;;;;;;;7.07;4.43;;;12.30;99.90;;;;;;4995784;28;20170;-83
2023/03/24 00:41:46;;;;;;;8.85;4.63;;;12.30;99.90;;;;;;4996188;28;20186;-85
2023/03/24 00:44:16;;;;;;;11.38;5.05;;;12.30;99.90;;;;;;4995112;28;20639;-84
2023/03/24 00:46:54;;;;;;;9.15;4.53;;;12.30;99.90;;;;;;4995106;28;20543;-83
2023/03/24 00:49:41;;;;;;;11.90;4.72;;;12.20;99.90;;;;;;4995122;28;20181;-83
2023/03/24 00:52:19;;;;;;;11.15;5.53;;;12.20;99.90;;;;;;4996106;28;20619;-83
2023/03/24 00:54:47;;;;;;;10.05;5.70;;;12.20;99.90;;;;;;4996145;28;20189;-84
2023/03/24 00:57:24;;;;;;;14.80;5.07;;;12.20;99.90;;;;;;4995983;28;20174;-84
2023/03/24 00:59:53;;;;;;;12.15;5.50;;;12.20;99.90;;;;;;4995296;28;20216;-84
2023/03/24 01:02:23;;;;;;;11.65;5.65;;;12.10;99.90;;;;;;4995905;28;20301;-84
2023/03/24 01:04:55;;;;;;;8.27;4.70;;;12.10;99.90;;;;;;4994565;28;20674;-83
2023/03/24 01:07:21;;;;;;;10.07;5.18;;;12.10;99.90;;;;;;4995913;28;20186;-83
2023/03/24 01:09:50;;;;;;;16.80;4.85;;;12.10;99.90;;;;;;4995468;28;20178;-82
2023/03/24 01:12:17;;;;;;;11.27;5.15;;;12.00;99.90;;;;;;4995948;28;20202;-83
2023/03/24 01:14:45;;;;;;;11.57;5.07;;;12.00;99.90;;;;;;4994364;28;20182;-83
2023/03/24 01:17:11;;;;;;;10.40;4.85;;;12.00;99.90;;;;;;4978358;28;20281;-83
2023/03/24 01:19:39;;;;;;;11.15;5.22;;;12.00;99.90;;;;;;4995618;28;20195;-83
2023/03/24 01:22:05;;;;;;;9.63;4.95;;;12.00;99.90;;;;;;4993988;28;20348;-83
2023/03/24 01:24:31;;;;;;;11.65;5.43;;;12.00;99.90;;;;;;4994360;28;20265;-82
2023/03/24 01:26:56;;;;;;;10.40;4.82;;;11.90;99.90;;;;;;4993976;28;20232;-83
2023/03/24 01:29:22;;;;;;;7.32;5.10;;;11.90;99.90;;;;;;4995431;28;20189;-82
2023/03/24 01:31:48;;;;;;;9.70;5.30;;;11.90;99.90;;;;;;4978088;28;20182;-82
2023/03/24 01:34:14;;;;;;;19.05;6.13;;;11.90;99.90;;;;;;4993239;28;20188;-83
2023/03/24 01:36:40;;;;;;;11.57;5.68;;;11.90;99.90;;;;;;4995318;28;20174;-83
2023/03/24 01:39:05;;;;;;;10.38;5.28;;;11.80;99.90;;;;;;4994032;28;20182;-83
2023/03/24 01:41:35;;;;;;;13.43;6.30;;;11.80;99.90;;;;;;4993983;28;20186;-82
2023/03/24 01:44:21;;;;;;;10.95;5.60;;;11.80;99.90;;;;;;4995096;28;20194;-82
2023/03/24 01:46:46;;;;;;;9.52;5.35;;;11.80;99.90;;;;;;4994120;28;20205;-82
2023/03/24 01:49:12;;;;;;;12.10;5.18;;;11.80;99.90;;;;;;4994054;28;20570;-83
2023/03/24 01:51:41;;;;;;;10.68;6.13;;;11.80;99.90;;;;;;4995097;28;20229;-83
2023/03/24 01:54:21;;;;;;;10.35;6.55;;;11.80;99.90;;;;;;4994925;28;20220;-83
2023/03/24 01:57:00;;;;;;;14.10;6.15;;;11.80;99.90;;;;;;4993489;28;20208;-82
2023/03/24 01:59:29;;;;;;;13.45;6.30;;;11.80;99.90;;;;;;4993816;28;20269;-82
2023/03/24 02:02:01;;;;;;;13.80;6.70;;;11.80;99.90;;;;;;4993539;28;20202;-83
2023/03/24 02:04:33;;;;;;;14.35;6.28;;;11.80;99.90;;;;;;4994009;28;20167;-82
2023/03/24 02:07:06;;;;;;;16.58;6.45;;;11.80;99.90;;;;;;4993190;28;20170;-83
2023/03/24 02:09:32;;;;;;;11.00;6.05;;;11.80;99.90;;;;;;4993686;28;20182;-82
2023/03/24 02:11:59;;;;;;;12.95;5.40;;;11.80;99.90;;;;;;4993299;28;20666;-83
2023/03/24 02:14:25;;;;;;;15.48;6.40;;;11.70;99.90;;;;;;4993518;28;20533;-83
2023/03/24 02:17:11;;;;;;;12.10;5.70;;;11.70;99.90;;;;;;4993337;28;20182;-82
2023/03/24 02:20:01;;;;;;;15.15;6.15;;;11.70;99.90;;;;;;4993018;28;20189;-82
2023/03/24 02:23:08;;;;;;;12.30;6.47;;;11.70;99.90;;;;;;4993259;28;20241;-82
2023/03/24 02:25:37;;;;;;;10.82;5.85;;;11.70;99.90;;;;;;4994454;28;20177;-82
2023/03/24 02:28:36;;;;;;;12.52;6.03;;;11.70;99.90;;;;;;4994370;28;20174;-82
2023/03/24 02:31:11;;;;;;;9.73;5.95;;;11.60;99.90;;;;;;4993022;28;20189;-82
2023/03/24 02:34:14;;;;;;;13.73;5.93;;;11.60;99.90;;;;;;4994218;28;20172;-82
2023/03/24 02:37:03;;;;;;;13.23;6.43;;;11.60;99.90;;;;;;4994681;28;20186;-82
2023/03/24 02:39:44;;;;;;;11.20;6.57;;;11.60;99.90;;;;;;4944091;28;20193;-84
2023/03/24 02:42:31;;;;;;;16.75;6.60;;;11.60;99.90;;;;;;4994482;28;20208;-83
2023/03/24 02:45:03;;;;;;;14.30;6.53;;;11.60;99.90;;;;;;4993666;28;20181;-83
2023/03/24 02:47:44;;;;;;;13.52;5.82;;;11.60;99.90;;;;;;4994667;28;20301;-82
2023/03/24 02:50:12;;;;;;;10.60;5.88;;;11.50;99.90;;;;;;4992710;28;20239;-83
2023/03/24 02:52:55;;;;;;;15.07;7.32;;;11.50;99.90;;;;;;4992841;28;20187;-82
2023/03/24 02:55:30;;;;;;;13.32;6.47;;;11.40;99.90;;;;;;4994048;28;20193;-81
2023/03/24 02:58:10;;;;;;;10.60;5.90;;;11.40;99.90;;;;;;4995501;28;20236;-81
2023/03/24 03:00:45;;;;;;;14.20;6.75;;;11.30;99.90;;;;;;4995682;28;20180;-80
2023/03/24 03:03:26;;;;;;;11.82;5.82;;;11.30;99.90;;;;;;4997207;28;20206;-82
2023/03/24 03:05:57;;;;;;;13.05;6.45;;;11.30;99.90;;;;;;4994759;28;20165;-82
2023/03/24 03:08:26;;;;;;;17.70;6.70;;;11.20;99.90;;;;;;4992726;28;20538;-82
2023/03/24 03:10:53;;;;;;;9.80;5.53;;;11.20;99.90;;;;;;4995935;28;20182;-82
2023/03/24 03:13:30;;;;;;;14.10;6.13;;;11.20;99.90;;;;;;4999735;28;20639;-82
2023/03/24 03:16:00;;;;;;;13.02;6.40;;;11.10;99.90;;;;;;4998801;28;20185;-82
2023/03/24 03:18:54;;;;;;;15.23;6.78;;;11.10;99.90;;;;;;4998442;28;20171;-82
2023/03/24 03:21:24;;;;;;;16.20;5.93;;;11.10;99.90;;;;;;4989411;28;20697;-83
2023/03/24 03:24:01;;;;;;;11.05;5.88;;;11.10;99.90;;;;;;4993780;28;20210;-82
2023/03/24 03:26:31;;;;;;;14.15;6.18;;;11.10;99.90;;;;;;4992563;28;20173;-81
2023/03/24 03:29:03;;;;;;;13.80;6.78;;;11.00;99.90;;;;;;4993975;28;20608;-81
2023/03/24 03:31:44;;;;;;;18.25;5.93;;;11.00;99.90;;;;;;4993499;28;20631;-83
2023/03/24 03:34:21;;;;;;;17.50;6.22;;;10.90;99.90;;;;;;4994131;28;20257;-81
2023/03/24 03:36:59;;;;;;;12.27;6.15;;;10.90;99.90;;;;;;4992428;28;20723;-82
2023/03/24 03:39:33;;;;;;;15.00;7.20;;;10.90;99.90;;;;;;4992401;28;20271;-83
2023/03/24 03:41:58;;;;;;;9.88;5.40;;;10.80;99.90;;;;;;4993755;28;20209;-83
2023/03/24 03:44:24;;;;;;;10.05;5.78;;;10.80;99.90;;;;;;4976092;28;20182;-82
2023/03/24 03:46:51;;;;;;;10.52;5.05;;;10.80;99.90;;;;;;4992269;28;20277;-83
2023/03/24 03:49:17;;;;;;;12.27;6.63;;;10.80;99.90;;;;;;4992490;28;20182;-82
2023/03/24 03:51:43;;;;;;;16.45;6.85;;;10.90;99.90;;;;;;4960269;28;20604;-82
2023/03/24 03:54:11;;;;;;;10.00;6.30;;;10.90;99.90;;;;;;4993661;28;20197;-82
2023/03/24 03:56:37;;;;;;;16.02;6.53;;;11.00;99.90;;;;;;4994188;28;20623;-83
2023/03/24 03:59:05;;;;;;;12.20;6.63;;;10.90;99.90;;;;;;4996015;28;20548;-82
2023/03/24 04:01:35;;;;;;;17.30;7.97;;;10.90;99.90;;;;;;4995786;28;20220;-83
2023/03/24 04:04:04;;;;;;;13.45;7.13;;;10.90;99.90;;;;;;4997067;28;20206;-83
2023/03/24 04:06:39;;;;;;;16.27;7.38;;;10.80;99.90;;;;;;4995582;28;20186;-83
2023/03/24 04:09:42;;;;;;;13.75;6.50;;;10.80;99.90;;;;;;4996719;28;20646;-82
2023/03/24 04:12:27;;;;;;;15.82;6.88;;;10.80;99.90;;;;;;4995767;28;20283;-83
2023/03/24 04:15:40;;;;;;;17.17;8.75;;;10.70;99.90;;;;;;4995668;28;20259;-82
2023/03/24 04:19:00;;;;;;;12.75;6.25;;;10.70;99.90;;;;;;4961702;28;20548;-82
2023/03/24 04:21:37;;;;;;;10.23;6.15;;;10.70;99.90;;;;;;4993551;28;20238;-83
2023/03/24 04:24:41;;;;;;;14.93;7.22;;;10.60;99.90;;;;;;4995405;28;20694;-82
2023/03/24 04:27:08;;;;;;;12.82;6.05;;;10.70;99.90;;;;;;4953051;28;20186;-83
2023/03/24 04:29:51;;;;;;;19.77;6.45;;;10.70;99.90;;;;;;4995200;28;20182;-83
2023/03/24 04:32:41;;;;;;;17.60;6.43;;;10.60;99.90;;;;;;4995761;28;20640;-83
2023/03/24 04:35:13;;;;;;;10.77;7.00;;;10.70;99.90;;;;;;4996342;28;20177;-82
2023/03/24 04:37:40;;;;;;;14.73;7.35;;;10.70;99.90;;;;;;4995408;28;20253;-85
2023/03/24 04:40:10;;;;;;;14.85;7.03;;;10.70;99.90;;;;;;4994276;28;20635;-84
2023/03/24 04:42:51;;;;;;;16.98;7.60;;;10.70;99.90;;;;;;4995477;28;20210;-84
2023/03/24 04:45:18;;;;;;;14.02;7.82;;;10.70;99.90;;;;;;4994313;28;20189;-84
2023/03/24 04:47:55;;;;;;;14.85;8.88;;;10.80;99.90;;;;;;4977922;28;20273;-84
2023/03/24 04:50:41;;;;;;;14.32;7.00;;;10.80;99.90;;;;;;4995738;28;20537;-84
2023/03/24 04:53:08;;;;;;;14.73;7.90;;;10.80;99.90;;;;;;4997703;28;20169;-84
2023/03/24 04:55:49;;;;;;;12.55;6.57;;;10.80;99.90;;;;;;4980550;28;20178;-82
2023/03/24 04:58:20;;;;;;;13.25;6.88;;;10.80;99.90;;;;;;4994030;28;20644;-82
2023/03/24 05:00:46;;;;;;;11.90;6.05;;;10.80;99.90;;;;;;4995275;28;20174;-82
2023/03/24 05:03:14;;;;;;;14.32;7.22;;;10.80;99.90;;;;;;4979828;28;20206;-84
2023/03/24 05:05:45;;;;;;;13.90;7.22;;;10.90;99.90;;;;;;4978160;28;20182;-83
2023/03/24 05:08:11;;;;;;;12.68;6.75;;;10.90;99.90;;;;;;4995284;28;20166;-82
2023/03/24 05:10:38;;;;;;;10.32;5.82;;;10.90;99.90;;;;;;4993892;28;20197;-82
2023/03/24 05:13:05;;;;;;;13.70;6.03;;;10.90;99.90;;;;;;4994757;28;20185;-83
2023/03/24 05:15:31;;;;;;;11.30;6.80;;;11.00;99.90;;;;;;4993546;28;20644;-81
2023/03/24 05:17:57;;;;;;;15.82;5.93;;;11.00;99.90;;;;;;4994862;28;20174;-83
2023/03/24 05:20:23;;;;;;;11.00;5.82;;;11.10;99.90;;;;;;4993473;28;20240;-84
2023/03/24 05:22:50;;;;;;;13.15;6.47;;;11.10;99.90;;;;;;4993407;28;20265;-84
2023/03/24 05:25:17;;;;;;;22.50;10.50;;;11.10;99.90;;;;;;4992801;28;20517;-83
2023/03/24 05:27:43;;;;;;;24.90;10.82;;;11.20;99.90;;;;;;4993606;28;20265;-84
2023/03/24 05:30:10;;;;;;;34.25;11.45;;;11.20;99.90;;;;;;4992728;28;20785;-84
2023/03/24 05:32:36;;;;;;;28.90;10.63;;;11.20;99.90;;;;;;4976635;28;20182;-84
2023/03/24 05:35:02;;;;;;;23.98;9.27;;;11.30;99.90;;;;;;4993974;28;20178;-83
2023/03/24 05:37:28;;;;;;;18.77;9.25;;;11.30;99.90;;;;;;4992157;28;20189;-84
2023/03/24 05:39:54;;;;;;;18.77;8.45;;;11.30;99.90;;;;;;4976430;28;20185;-82
2023/03/24 05:42:20;;;;;;;18.63;9.63;;;11.30;99.90;;;;;;4976263;28;20284;-83
2023/03/24 05:44:46;;;;;;;17.92;7.70;;;11.30;99.90;;;;;;4993861;28;20186;-83
2023/03/24 05:47:15;;;;;;;13.88;7.30;;;11.40;99.90;;;;;;4975546;28;20182;-83
2023/03/24 05:49:42;;;;;;;16.50;7.55;;;11.40;99.90;;;;;;4975742;28;20240;-84
2023/03/24 05:52:08;;;;;;;16.77;8.52;;;11.40;99.90;;;;;;4992828;28;20188;-84
2023/03/24 05:54:35;;;;;;;16.23;8.02;;;11.50;99.90;;;;;;4992882;28;20669;-83
2023/03/24 05:57:01;;;;;;;17.23;7.63;;;11.60;99.90;;;;;;4991637;28;20182;-83
2023/03/24 05:59:28;;;;;;;18.17;8.77;;;11.70;99.90;;;;;;4960190;28;20193;-82
2023/03/24 06:01:57;;;;;;;16.92;6.75;;;11.80;99.90;;;;;;4992961;28;20177;-83
2023/03/24 06:04:23;;;;;;;23.58;7.88;;;11.80;99.90;;;;;;4992376;28;20178;-83
2023/03/24 06:06:49;;;;;;;13.07;7.15;;;11.90;99.90;;;;;;4992279;28;20206;-84
2023/03/24 06:09:18;;;;;;;16.55;7.10;;;;;;;;;;4993609;28;20224;-85
2023/03/24 06:11:44;;;;;;;16.65;7.20;;;12.00;99.90;;;;;;4993590;28;20173;-85
2023/03/24 06:14:10;;;;;;;14.68;6.85;;;12.10;99.90;;;;;;4995481;28;20186;-85
2023/03/24 06:16:39;;;;;;;19.45;8.50;;;12.10;99.90;;;;;;4993169;28;20186;-88
2023/03/24 06:19:05;;;;;;;14.57;6.88;;;12.10;99.90;;;;;;4977890;28;20213;-86
2023/03/24 06:21:32;;;;;;;22.42;8.48;;;12.20;99.90;;;;;;4992949;28;20312;-86
2023/03/24 06:23:59;;;;;;;13.90;6.72;;;12.20;99.90;;;;;;4992994;28;20318;-86
2023/03/24 06:26:25;;;;;;;15.73;6.75;;;12.30;99.90;;;;;;4993527;28;20189;-86
2023/03/24 06:28:51;;;;;;;18.65;6.90;;;12.30;99.90;;;;;;4993063;28;20212;-85
2023/03/24 06:31:20;;;;;;;16.92;6.63;;;12.40;99.90;;;;;;4992893;28;20701;-84
2023/03/24 06:33:47;;;;;;;23.20;8.10;;;12.40;99.90;;;;;;4992660;28;20198;-83
2023/03/24 06:36:14;;;;;;;18.90;7.10;;;12.40;99.90;;;;;;4994217;28;20174;-83
2023/03/24 06:38:41;;;;;;;17.45;7.85;;;12.50;99.90;;;;;;4992810;28;20540;-83
2023/03/24 06:41:07;;;;;;;18.40;8.02;;;12.50;99.90;;;;;;4994436;28;20258;-83
2023/03/24 06:43:33;;;;;;;12.18;7.00;;;12.50;99.90;;;;;;4993934;28;20202;-84
2023/03/24 06:45:59;;;;;;;11.00;6.20;;;12.60;99.90;;;;;;4992698;28;20188;-83
2023/03/24 06:48:26;;;;;;;17.30;7.82;;;12.60;99.90;;;;;;4992838;28;20190;-83
2023/03/24 06:50:52;;;;;;;15.95;7.72;;;12.70;99.90;;;;;;4993685;28;20265;-82
2023/03/24 06:53:20;;;;;;;19.73;8.70;;;12.70;99.90;;;;;;4976557;28;20536;-82
2023/03/24 06:55:50;;;;;;;25.60;10.55;;;12.70;99.90;;;;;;4977013;28;20181;-83
2023/03/24 06:58:16;;;;;;;20.77;7.90;;;12.80;99.90;;;;;;4992245;28;20185;-83
2023/03/24 07:00:43;;;;;;;19.30;9.35;;;12.80;99.90;;;;;;4993469;28;20564;-83
2023/03/24 07:03:09;;;;;;;16.10;8.57;;;12.80;99.90;;;;;;4997273;28;20198;-83
2023/03/24 07:05:39;;;;;;;13.68;7.20;;;12.80;99.90;;;;;;4994356;28;20650;-83
2023/03/24 07:08:05;;;;;;;14.52;7.55;;;12.70;99.90;;;;;;4993005;28;20639;-83
2023/03/24 07:10:31;;;;;;;17.63;7.32;;;12.70;99.90;;;;;;4991886;28;20695;-83
2023/03/24 07:12:58;;;;;;;16.55;7.65;;;12.70;99.90;;;;;;4992757;28;20181;-83
2023/03/24 07:15:24;;;;;;;16.77;7.90;;;12.70;99.90;;;;;;4993173;28;20182;-83
2023/03/24 07:17:50;;;;;;;14.20;7.43;;;12.60;99.90;;;;;;4993026;28;20185;-83
2023/03/24 07:20:16;;;;;;;16.35;8.50;;;12.60;99.90;;;;;;4976071;28;20190;-83
2023/03/24 07:22:42;;;;;;;20.88;8.80;;;12.50;99.90;;;;;;4992975;28;20325;-83
2023/03/24 07:25:08;;;;;;;19.85;9.10;;;12.50;99.90;;;;;;4993242;28;20282;-82
2023/03/24 07:27:34;;;;;;;21.02;8.25;;;12.40;99.90;;;;;;4991702;28;20606;-82
2023/03/24 07:30:01;;;;;;;23.50;10.45;;;12.40;99.90;;;;;;4991637;28;20178;-82
2023/03/24 07:32:29;;;;;;;19.33;10.25;;;12.40;99.90;;;;;;4993563;28;20186;-82
2023/03/24 07:34:56;;;;;;;19.00;8.32;;;12.40;99.90;;;;;;4995379;28;20178;-82
2023/03/24 07:37:22;;;;;;;15.20;7.72;;;12.30;99.90;;;;;;4996669;28;20182;-82
2023/03/24 07:39:48;;;;;;;16.52;8.32;;;12.20;99.90;;;;;;4995370;28;20181;-82
2023/03/24 07:42:13;;;;;;;19.38;7.78;;;12.20;99.90;;;;;;4995489;28;20222;-82
2023/03/24 07:44:39;;;;;;;16.67;7.75;;;12.10;99.90;;;;;;4996647;28;20182;-82
2023/03/24 07:47:05;;;;;;;15.43;7.68;;;12.10;99.90;;;;;;4995222;28;20194;-82
2023/03/24 07:49:31;;;;;;;18.88;8.48;;;12.10;99.90;;;;;;4996691;28;20269;-82
2023/03/24 07:51:57;;;;;;;14.25;7.63;;;12.10;99.90;;;;;;4996394;28;20178;-82
2023/03/24 07:54:24;;;;;;;18.23;8.38;;;12.00;99.90;;;;;;4995562;28;20178;-83
2023/03/24 07:56:50;;;;;;;19.80;8.23;;;12.10;99.90;;;;;;4979694;28;20190;-83
2023/03/24 07:59:16;;;;;;;14.20;7.47;;;12.10;99.90;;;;;;4995027;28;20682;-82
2023/03/24 08:01:42;;;;;;;14.40;7.75;;;12.10;99.90;;;;;;4994978;28;20197;-81
2023/03/24 08:04:12;;;;;;;15.90;7.63;;;12.10;99.90;;;;;;4978732;28;20698;-82
2023/03/24 08:06:37;;;;;;;18.30;8.55;;;12.00;99.90;;;;;;4996215;28;20173;-83
2023/03/24 08:09:03;;;;;;;16.35;7.75;;;12.00;99.90;;;;;;4994787;28;20689;-82
2023/03/24 08:11:29;;;;;;;16.52;8.68;;;12.10;99.90;;;;;;4996195;28;20268;-82
2023/03/24 08:13:55;;;;;;;19.33;7.43;;;12.10;99.90;;;;;;4994564;28;20190;-82
2023/03/24 08:16:21;;;;;;;13.88;7.32;;;12.20;99.90;;;;;;4996127;28;20178;-82
2023/03/24 08:18:47;;;;;;;15.25;8.13;;;12.20;99.90;;;;;;4978490;28;20174;-83
2023/03/24 08:21:13;;;;;;;12.85;7.57;;;12.30;99.90;;;;;;4994456;28;20178;-82
2023/03/24 08:23:40;;;;;;;16.42;8.07;;;12.40;99.90;;;;;;4995718;28;20209;-84
2023/03/24 08:26:06;;;;;;;15.80;8.13;;;12.40;99.90;;;;;;4978341;28;20190;-82
2023/03/24 08:28:32;;;;;;;15.35;7.57;;;12.50;99.90;;;;;;4995723;28;20192;-83
2023/03/24 08:30:57;;;;;;;15.63;6.97;;;12.60;99.90;;;;;;4994254;28;20193;-82
2023/03/24 08:33:23;;;;;;;11.00;6.80;;;12.60;99.90;;;;;;4994246;28;20193;-83
2023/03/24 08:35:50;;;;;;;14.55;7.25;;;12.60;99.90;;;;;;4995636;28;20186;-82
2023/03/24 08:38:16;;;;;;;16.15;8.00;;;12.70;99.90;;;;;;4994356;28;20174;-82
2023/03/24 08:40:42;;;;;;;11.32;6.45;;;12.70;99.90;;;;;;4995487;28;20645;-83
2023/03/24 08:43:12;;;;;;;13.43;5.88;;;12.80;99.90;;;;;;4994557;28;20206;-82
2023/03/24 08:45:38;;;;;;;16.70;6.45;;;12.90;99.90;;;;;;4996377;28;20178;-82
2023/03/24 08:48:05;;;;;;;9.55;5.50;;;12.90;99.90;;;;;;5011361;28;20537;-84
2023/03/24 08:50:38;;;;;;;12.82;6.35;;;12.90;99.90;;;;;;4994913;28;20217;-83
2023/03/24 08:53:04;;;;;;;10.63;5.88;;;13.00;99.90;;;;;;4994782;28;20721;-83
2023/03/24 08:55:30;;;;;;;11.82;6.22;;;13.00;99.90;;;;;;4996310;28;20206;-83
2023/03/24 08:57:56;;;;;;;10.35;5.70;;;13.10;99.90;;;;;;4995214;28;20635;-82
2023/03/24 09:00:22;;;;;;;15.55;7.15;;;13.10;99.90;;;;;;4994594;28;20656;-82
2023/03/24 09:02:53;;;;;;;12.20;7.03;;;13.20;99.90;;;;;;4994758;28;20214;-83
2023/03/24 09:05:20;;;;;;;8.02;5.00;;;13.30;99.90;;;;;;4996123;28;20474;-82
2023/03/24 09:07:49;;;;;;;12.48;5.75;;;13.30;99.90;;;;;;4994738;28;20224;-83
2023/03/24 09:10:15;;;;;;;8.88;5.05;;;13.30;99.90;;;;;;4996475;28;20236;-82
2023/03/24 09:12:42;;;;;;;13.38;6.78;;;13.30;99.90;;;;;;4997267;28;20186;-82
2023/03/24 09:15:10;;;;;;;9.77;5.15;;;13.40;99.90;;;;;;5004958;28;20178;-82
2023/03/24 09:17:36;;;;;;;7.35;4.93;;;13.50;99.90;;;;;;5002220;28;20273;-82
2023/03/24 09:20:07;;;;;;;8.50;4.82;;;13.60;99.90;;;;;;5002682;28;20702;-82
2023/03/24 09:22:35;;;;;;;8.23;4.20;;;13.70;99.90;;;;;;4996015;28;20241;-81
2023/03/24 09:25:01;;;;;;;9.30;5.30;;;13.70;99.90;;;;;;4994567;28;20178;-83
2023/03/24 09:27:27;;;;;;;7.63;4.88;;;13.80;99.90;;;;;;5002381;28;20265;-83
2023/03/24 09:29:52;;;;;;;16.10;6.57;;;13.80;99.90;;;;;;4989848;28;20182;-82
2023/03/24 09:32:20;;;;;;;9.50;5.07;;;13.80;99.90;;;;;;5009778;28;20214;-81
2023/03/24 09:34:45;;;;;;;12.52;4.53;;;13.80;99.90;;;;;;5004144;28;20178;-81
2023/03/24 09:37:11;;;;;;;8.52;4.70;;;13.90;99.90;;;;;;4998814;28;20197;-82
2023/03/24 09:39:37;;;;;;;10.02;4.88;;;13.90;99.90;;;;;;4977812;28;20545;-84
2023/03/24 09:42:13;;;;;;;8.50;4.25;;;13.90;99.90;;;;;;4993836;28;20185;-82
2023/03/24 09:44:49;;;;;;;6.78;4.28;;;14.00;99.90;;;;;;4995618;28;20162;-82
2023/03/24 09:47:33;;;;;;;8.15;5.07;;;14.00;99.90;;;;;;4993972;28;20225;-82
2023/03/24 09:50:06;;;;;;;11.85;4.50;;;14.00;99.90;;;;;;4993619;28;20181;-83
2023/03/24 09:52:38;;;;;;;12.18;4.50;;;14.00;99.90;;;;;;4994051;28;20186;-82
2023/03/24 09:55:04;;;;;;;6.93;4.18;;;14.10;99.90;;;;;;4993519;28;20186;-82
2023/03/24 09:57:45;;;;;;;9.10;4.65;;;14.30;99.90;;;;;;4993625;28;20309;-82
2023/03/24 10:00:20;;;;;;;11.00;4.43;;;14.40;99.90;;;;;;4993532;28;20189;-83
2023/03/24 10:02:47;;;;;;;5.72;4.20;;;14.80;99.90;;;;;;4994967;28;20240;-82
2023/03/24 10:05:21;;;;;;;7.70;4.57;;;15.00;99.90;;;;;;4993368;28;20664;-82
2023/03/24 10:07:53;;;;;;;8.13;4.22;;;15.30;99.90;;;;;;4994725;28;20654;-83
2023/03/24 10:10:30;;;;;;;6.05;4.38;;;15.40;99.90;;;;;;4993346;28;20324;-84
2023/03/24 10:13:05;;;;;;;6.78;3.72;;;15.60;99.90;;;;;;4994641;28;20525;-84
2023/03/24 10:15:51;;;;;;;6.10;4.40;;;15.70;99.90;;;;;;4993426;28;20192;-81
2023/03/24 10:18:40;;;;;;;12.38;5.30;;;15.70;99.90;;;;;;4993562;28;20185;-82
2023/03/24 10:21:18;;;;;;;5.80;3.75;;;15.80;99.90;;;;;;4994418;28;20166;-82
2023/03/24 10:23:52;;;;;;;5.38;3.42;;;15.80;99.90;;;;;;4994619;28;20208;-83
2023/03/24 10:26:47;;;;;;;8.70;4.97;;;15.70;99.90;;;;;;4993204;28;20185;-82
2023/03/24 10:29:33;;;;;;;4.65;3.17;;;15.90;99.90;;;;;;4993323;28;20265;-81
2023/03/24 10:32:18;;;;;;;7.55;4.07;;;15.90;99.90;;;;;;4995659;28;20283;-80
2023/03/24 10:34:47;;;;;;;6.75;3.75;;;15.80;99.90;;;;;;4994513;28;20200;-81
2023/03/24 10:37:14;;;;;;;5.70;3.70;;;15.80;99.90;;;;;;4994635;28;20174;-82
2023/03/24 10:39:40;;;;;;;5.53;3.75;;;15.90;99.90;;;;;;4994423;28;20178;-81
2023/03/24 10:42:05;;;;;;;5.93;3.78;;;16.00;99.90;;;;;;4994527;28;20178;-82
2023/03/24 10:44:31;;;;;;;10.77;4.50;;;16.00;99.90;;;;;;4992880;28;20186;-81
2023/03/24 10:47:03;;;;;;;8.18;4.28;;;16.10;99.90;;;;;;4993642;28;20178;-81
2023/03/24 10:49:30;;;;;;;8.05;3.80;;;16.20;99.90;;;;;;4992824;28;20178;-82
2023/03/24 10:52:02;;;;;;;13.27;4.47;;;16.40;99.90;;;;;;4992719;28;20189;-82
2023/03/24 10:54:30;;;;;;;8.40;4.82;;;16.70;99.90;;;;;;4992628;28;20548;-82
2023/03/24 10:56:59;;;;;;;7.47;4.18;;;16.90;99.90;;;;;;4993951;28;20197;-82
2023/03/24 10:59:37;;;;;;;9.07;3.85;;;17.20;99.90;;;;;;4992015;28;20225;-83
2023/03/24 11:02:09;;;;;;;9.50;4.65;;;17.40;99.90;;;;;;4992470;28;20277;-82
2023/03/24 11:04:40;;;;;;;6.57;4.15;;;17.50;99.90;;;;;;4992214;28;20186;-82
2023/03/24 11:07:20;;;;;;;6.57;4.15;;;17.70;99.90;;;;;;4993972;28;20193;-82
2023/03/24 11:10:10;;;;;;;6.35;3.75;;;17.90;99.90;;;;;;4998121;28;20178;-82
2023/03/24 11:12:41;;;;;;;6.43;3.28;;;18.00;99.90;;;;;;4997586;28;20236;-82
2023/03/24 11:15:20;;;;;;;6.82;4.00;;;18.10;99.90;;;;;;4997110;28;20176;-82
2023/03/24 11:17:57;;;;;;;5.05;3.13;;;18.30;99.90;;;;;;4995683;28;20224;-83
2023/03/24 11:20:40;;;;;;;6.05;3.40;;;18.50;99.90;;;;;;4995631;28;20268;-83
2023/03/24 11:23:11;;;;;;;6.70;4.00;;;18.60;99.90;;;;;;4995383;28;20272;-84
2023/03/24 11:25:40;;;;;;;8.88;3.33;;;18.80;99.90;;;;;;4995589;28;20228;-83
2023/03/24 11:28:13;;;;;;;7.82;3.97;;;18.70;99.90;;;;;;4995686;28;20229;-83
2023/03/24 11:30:48;;;;;;;7.05;3.30;;;18.50;99.90;;;;;;4996355;28;20174;-83
2023/03/24 11:33:21;;;;;;;7.93;3.88;;;18.50;99.90;;;;;;4996313;28;20236;-81
2023/03/24 11:35:47;;;;;;;4.63;2.58;;;18.50;99.90;;;;;;4996224;28;20177;-82
2023/03/24 11:38:18;;;;;;;6.68;3.00;;;18.60;99.90;;;;;;4996266;28;20618;-83
2023/03/24 11:41:00;;;;;;;7.45;3.90;;;18.70;99.90;;;;;;4963886;28;20631;-83
2023/03/24 11:43:27;;;;;;;4.43;3.10;;;19.00;99.90;;;;;;4997326;28;20209;-81
2023/03/24 11:46:15;;;;;;;4.75;2.83;;;19.20;99.90;;;;;;4996348;28;20540;-81
2023/03/24 11:48:54;;;;;;;5.55;3.33;;;19.20;99.90;;;;;;4996002;28;20181;-82
2023/03/24 11:51:35;;;;;;;6.40;3.13;;;19.30;99.90;;;;;;4996058;28;20178;-82
2023/03/24 11:54:05;;;;;;;5.28;3.20;;;19.40;99.90;;;;;;4997339;28;20205;-81
2023/03/24 11:56:40;;;;;;;7.28;2.83;;;19.40;99.90;;;;;;4995646;28;20204;-81
2023/03/24 11:59:20;;;;;;;6.53;2.33;;;19.30;99.40;;;;;;4996106;28;20538;-81
2023/03/24 12:01:55;;;;;;;4.75;3.03;;;19.20;99.50;;;;;;4996966;28;20169;-81
2023/03/24 12:04:49;;;;;;;4.07;3.05;;;19.10;99.80;;;;;;4997089;28;20201;-82
2023/03/24 12:07:34;;;;;;;5.15;2.67;;;19.10;99.90;;;;;;4954623;28;20197;-82
2023/03/24 12:10:11;;;;;;;7.00;3.20;;;19.10;99.40;;;;;;4995737;28;20185;-83
2023/03/24 12:12:48;;;;;;;5.88;2.85;;;19.10;99.60;;;;;;4996706;28;20207;-83
2023/03/24 12:15:26;;;;;;;4.35;2.78;;;19.40;99.30;;;;;;4995825;28;20185;-83
2023/03/24 12:18:46;;;;;;;8.75;3.70;;;19.60;98.10;;;;;;4996153;28;20185;-82
2023/03/24 12:21:23;;;;;;;5.28;2.22;;;19.60;99.00;;;;;;4900781;29;20275;-81
2023/03/24 12:23:56;;;;;;;11.43;3.08;;;19.70;96.80;;;;;;4986131;28;20595;-83
2023/03/24 12:26:28;;;;;;;3.85;2.15;;;19.70;97.80;;;;;;4996852;28;20162;-82
2023/03/24 12:29:04;;;;;;;4.90;2.47;;;19.80;96.20;;;;;;4980520;28;20661;-83
2023/03/24 12:31:55;;;;;;;4.90;2.53;;;19.80;96.10;;;;;;5000838;28;20169;-83
2023/03/24 12:34:45;;;;;;;2.58;1.92;;;19.70;95.70;;;;;;4997404;28;20166;-83
2023/03/24 12:37:30;;;;;;;3.80;2.20;;;19.70;95.40;;;;;;4996842;28;20185;-83
2023/03/24 12:40:11;;;;;;;3.72;2.03;;;19.90;94.70;;;;;;4996144;28;20193;-83
2023/03/24 12:42:45;;;;;;;5.38;2.75;;;20.00;94.80;;;;;;4995027;28;20214;-83
2023/03/24 12:45:52;;;;;;;2.47;2.00;;;19.80;94.50;;;;;;4996547;28;20628;-82
2023/03/24 12:48:20;;;;;;;4.63;2.10;;;19.90;94.70;;;;;;4917373;29;20192;-83
2023/03/24 12:50:56;;;;;;;3.33;2.17;;;19.80;93.70;;;;;;4917158;29;20263;-82
2023/03/24 12:53:41;;;;;;;2.53;1.80;;;19.90;94.10;;;;;;4953881;28;20211;-83
2023/03/24 12:56:17;;;;;;;2.97;2.10;;;19.80;93.80;;;;;;4996257;28;20179;-83
2023/03/24 12:58:55;;;;;;;3.25;1.95;;;19.60;92.70;;;;;;4994666;28;20185;-83
2023/03/24 13:01:51;;;;;;;3.67;2.13;;;19.50;93.30;;;;;;4997008;28;20190;-85
2023/03/24 13:04:19;;;;;;;4.45;2.08;;;19.30;93.20;;;;;;4980175;28;20253;-82